Aviation Digital Data Service (ADDS)

Output produced by METARs form (0324 UTC 19 August 2019)
found at http://www.aviationweather.gov/metar/data/
 
Forecast for: VTUV (ROIET , TH)
Text: TAF VTUV 182300Z 1900/1924 25008KT 9999 SCT030
Forecast period: 0000 UTC 19 August 2019 to 0000 UTC 20 August 2019
Forecast type: FROM: standard forecast or significant change
Winds: from the WSW (250 degrees) at 9 MPH (8 knots; 4.1 m/s)
Visibility: 6 or more miles 10+ km)
Ceiling: at least 12,000 feet AGL
Clouds: scattered clouds at 3000 feet AGL
Weather: no significant weather forecast for this period